Jean Paul

Olheiro-Chefe - Stade Rennais
7 Dez 2028
Quinta-feira
Processo

Personalidade

Adaptabilidade (4) Ambição (11) Controvérsia (17) Lealdade (5) Pressão (17) Profissionalismo (15) Espírito Esportivo (6) Temperamento (3)

Perfil

Estilo de Treinamento Democrático
Licença Continental A
Determinação 15
Gestão de Pessoas 10
Motivação 14
Disciplina 11
Satisfação no Trabalho
100%
Fadiga
0%
Função Olheiro-Chefe
Salário 100.7K p/s
Contrato 14.03.2029

Desempenho

Comportamento Bom
Eficácia do Treinamento
45%
Desenvolvimento do Jogador
25%
Prevenção de Lesões
50%
Implementação Tática
40%

Eventos Recentes

Avaliou um jogador agora
Avaliou um jogador agora
Participou de uma reunião de recrutamento agora
Participou de uma reunião de recrutamento agora
Recomendou um alvo de transferência agora
Recomendou um alvo de transferência agora
Avaliou um jogador 7d atrás
Avaliou um jogador 7d atrás

Monitorando agora

243
Jogador Clube Status Habilidade Confiança Observado Última observação Último voto
Fabri Vitória Ativo 126 / 120 40% 3 06.12.2028 -
John Kennedy Corinthians Ativo 136 / 132 40% 3 06.12.2028 -
Esteban Obregón Montevideo City Torque Ativo 121 / 120 40% 1 06.12.2028 -
Alan Velasco Fortaleza Ativo 136 / 133 40% 4 05.12.2028 -
Kévin Denkey FC Cincinnati Ativo 130 / 130 40% 7 05.12.2028 -
Alexander Díaz Deportivo Riestra Ativo 130 / 122 40% 3 05.12.2028 -
Wessam Abou Ali Columbus Crew Ativo 128 / 131 40% 12 04.12.2028 -
Christos Mouzakitis Hull City Ativo 142 / 148 40% 9 04.12.2028 -
Dejan Joveljić Seattle Sounders Ativo 132 / 129 40% 9 04.12.2028 -
Jack Shorrock Port Vale Ativo 105 / 112 40% 2 04.12.2028 -
Rafael Mota Sporting CP Ativo 118 / 126 40% 1 04.12.2028 -
Leonardo Campana New England Revolution Ativo 127 / 129 40% 6 02.12.2028 -
Mateo Bajamich Atlético Tucumán Ativo 124 / 122 40% 2 02.12.2028 -
Gonzalo Plata Nacional Ativo 139 / 140 40% 7 01.12.2028 -
Alejo Veliz Bahia Ativo 141 / 137 40% 4 01.12.2028 -
Vitinho Internacional Ativo 127 / 128 40% 2 30.11.2028 -
Kiani Inge Groningen Ativo 117 / 124 40% 2 29.11.2028 -
Azizbek To'lqinbekov Bunyodkor Ativo 103 / 107 40% 2 29.11.2028 -
Rhian Brewster LA Galaxy Ativo 126 / 129 40% 6 29.11.2028 -
Nicolás Ferreira Wanderers Ativo 126 / 120 40% 6 29.11.2028 -
Ramiro Ruiz Rodríguez Atlético Tucumán Ativo 131 / 122 40% 2 29.11.2028 -
Ramiro Villella Inter Ativo 98 / 107 40% 1 29.11.2028 -
Toni Fruk Talleres Ativo 140 / 137 40% 10 27.11.2028 -
Bongokuhle Hlongwane LA Galaxy Ativo 136 / 133 40% 2 27.11.2028 -
Souleymane Faye Sporting CP Ativo 139 / 136 40% 1 27.11.2028 -
Ignacio Maestro Puch Independiente Ativo 123 / 128 40% 10 26.11.2028 -
Agustín Anello Philadelphia Union Ativo 131 / 128 40% 9 25.11.2028 -
Erik Botheim Viking Ativo 127 / 128 40% 4 25.11.2028 -
Louis Page Leicester City Ativo 133 / 142 40% 2 24.11.2028 -
Gonzalo Tapia São Paulo Ativo 137 / 130 40% 1 24.11.2028 -
Barış Alper Yılmaz Cruzeiro Ativo 150 / 150 40% 5 21.11.2028 -
Lyle Foster Rosenborg Ativo 138 / 135 40% 8 21.11.2028 -
Emmanuel Latte Lath Atlanta United FC Ativo 144 / 136 40% 5 18.11.2028 -
Endrick Boca Juniors Ativo 163 / 162 40% 6 17.11.2028 -
Lenny Piètre Dijon Ativo 101 / 104 42% 1 / 1m 15.11.2028 -
Alexis Cuello San Lorenzo Ativo 132 / 125 40% 7 14.11.2028 -
Miguel Figueiredo Benfica Ativo 125 / 133 40% 5 12.11.2028 -
José Neto Benfica Ativo 128 / 131 40% 1 12.11.2028 -
Maurice Malone DC United Ativo 121 / 125 40% 3 09.11.2028 -
Jonás Luna Wanderers Ativo 127 / 122 40% 1 09.11.2028 -
Talles Magno New York City Ativo 141 / 134 40% 10 05.11.2028 -
Bénie Traoré New York City Ativo 129 / 129 40% 2 04.11.2028 -
Rodrigo Auzmendi Banfield Ativo 130 / 124 40% 2 03.11.2028 -
Louis Munteanu Charlotte Football Club Ativo 132 / 132 40% 2 29.10.2028 -
Jeong Sang-Bin St. Louis CITY SC Ativo 127 / 119 40% 2 28.10.2028 -
Emiliano Gómez Boston River Ativo 122 / 121 40% 3 28.10.2028 -
Ignacio Russo Tigre Ativo 122 / 126 40% 1 28.10.2028 -
Luca Langoni Columbus Crew Ativo 134 / 132 40% 6 24.10.2028 -
Jefry Zapata Aldosivi Ativo 120 / 120 40% 4 23.10.2028 -
Germán Berterame Inter Miami CF Ativo 130 / 135 40% 5 12.10.2028 -
Andrey Ivlev Nizhniy Novgorod Ativo 112 / 122 40% 2 07.10.2028 -
Jofre Torrents Ajax Ativo 137 / 141 40% 1 07.10.2028 -
Diego León Rotherham United Ativo 124 / 130 40% 1 07.10.2028 -
Konstantin Tyukavin New York City Ativo 147 / 143 40% 1 06.10.2028 -
Matías Arezo Penarol Ativo 135 / 127 40% 2 03.10.2028 -
Mateusz Bogusz DC United Ativo 134 / 131 40% 2 03.10.2028 -
Eric Klein Real Salt Lake Ativo 96 / 105 40% 1 02.10.2028 -
Salvador Blopá Wolverhampton Ativo 126 / 131 40% 1 02.10.2028 -
Martín Ojeda Orlando City Ativo 134 / 135 40% 2 29.09.2028 -
Théodore Lefèvre Tours Ativo 152 / 152 52% 1 / 1m 20.09.2028 -
Otis Caporusso Tours Ativo 110 / 118 42% 1 / 1m 20.09.2028 -
Kerwin Vargas DC United Ativo 124 / 125 40% 1 15.09.2028 -
Riquelme Thompson-Jones Accrington Stanley Ativo 110 / 122 40% 2 01.09.2028 -
Alejandro Almaraz NK Celje Ativo 124 / 125 40% 2 01.09.2028 -
Lucas Silva River Plate Ativo 102 / 113 40% 1 01.09.2028 -
Felipe Obradovich Ferro Carril Oeste Ativo 106 / 115 40% 1 30.08.2028 -
Ayden Heaven Portsmouth Ativo 148 / 155 40% 4 21.08.2028 -
Adama Soumaoro Paris FC Relatório pronto 118 / 119 83% 1 07.08.2028 -
Federico Matarán Giana Erminio Ativo 104 / 115 40% 3 31.07.2028 -
Jan Bürger Northampton Town Ativo 121 / 125 40% 3 31.07.2028 -
Lamine Bèye Portimonense Ativo 117 / 122 40% 1 25.07.2028 -
Alex Scott Bournemouth Ativo 159 / 160 40% 9 18.07.2028 -
Luca Koleosho Paris FC Ativo 147 / 142 40% 10 18.07.2028 -
Ernest Nuamah Olympique Lyonnais Ativo 146 / 148 40% 12 18.07.2028 -
Luka Vušković Tottenham Ativo 151 / 155 40% 4 11.07.2028 -
Noah Markmann Esbjerg Ativo 118 / 127 40% 2 11.07.2028 -
Harry Amass Manchester United Ativo 144 / 148 40% 2 11.07.2028 -
Martim Cunha Porto Ativo 108 / 116 40% 5 04.07.2028 -
Vasilije Novičić IMT Ativo 111 / 112 40% 1 04.07.2028 -
Ahmad Ngouyamsa US Creteil Relatório pronto 116 / 120 83% 1 03.07.2028 -
Chemsdine Talbi Sunderland Ativo 152 / 152 40% 12 26.06.2028 -
Luca Williams-Barnett Walsall Ativo 124 / 130 40% 2 26.06.2028 -
Benicio Baker-Boaitey Mansfield Town Perdido 116 / 117 40% 1 26.06.2028 -
Leo Castledine Middlesbrough Ativo 137 / 139 40% 6 20.06.2028 -
Ra'ees Bangura-Williams Millwall Ativo 131 / 127 40% 2 20.06.2028 -
Antoni Milambo Brentford Ativo 147 / 147 40% 7 20.06.2028 -
Morteza Torabi Malavan Ativo 107 / 108 40% 5 07.06.2028 -
Andrija Bulatović Chamois Niortais Ativo 127 / 131 40% 6 05.06.2028 -
Myles Lewis-Skelly Arsenal Ativo 151 / 159 40% 1 01.06.2028 -
Jorthy Mokio ADO Den Haag Ativo 135 / 138 40% 1 31.05.2028 -
Andre Brooks Sheffield United Ativo 138 / 135 40% 2 30.05.2028 -
Rodrigo Gomes Wolverhampton Ativo 144 / 147 40% 1 30.05.2028 -
Max Johnston Derby County Ativo 135 / 134 40% 1 27.05.2028 -
Malick Fofana Sunderland Ativo 151 / 152 40% 19 24.05.2028 -
Shea Charles Southampton Ativo 148 / 147 40% 7 24.05.2028 -
Jason Witsel PSV Ativo 127 / 128 40% 1 24.05.2028 -
Adam Wharton Crystal Palace Ativo 161 / 161 40% 6 22.05.2028 -
Jayden Addai Bari Ativo 136 / 141 40% 13 22.05.2028 -
Caylan Vickers Burton Albion Ativo 113 / 118 40% 2 21.05.2028 -
Omari Hutchinson Nottingham Forest Ativo 156 / 152 40% 5 19.05.2028 -
Reyes Cleary Bromley Ativo 122 / 121 40% 2 18.05.2028 -
Ante Crnac Bristol Rovers Ativo 127 / 128 40% 2 17.05.2028 -
Jacques Ekomié Wrexham Ativo 133 / 137 40% 1 17.05.2028 -
Mohamed-Ali Cho Hull City Ativo 142 / 143 40% 6 15.05.2028 -
Savinho Tottenham Ativo 163 / 162 40% 15 14.05.2028 -
Kévin Danois AJ Auxerre Ativo 142 / 148 40% 8 08.05.2028 -
Stanis Idumbo AC Ajaccio Ativo 141 / 138 40% 10 03.05.2028 -
Ronan Kpakio AC Milan Ativo 122 / 130 40% 2 03.05.2028 -
Calvin Ramsay Bristol Rovers Ativo 126 / 124 40% 1 30.04.2028 -
Harrison Murray-Campbell Chelsea Ativo 111 / 114 40% 1 28.04.2028 -
Andrey Santos Bolton Wanderers Ativo 148 / 149 40% 3 25.04.2028 -
Tyreece Campbell Charlton Athletic Ativo 124 / 123 40% 4 24.04.2028 -
Abdul Fatawu Leicester City Ativo 144 / 143 40% 1 21.04.2028 -
Ngal'Ayel Mukau LOSC Lille Ativo 144 / 148 40% 2 15.04.2028 -
Jhon Solís Birmingham Ativo 141 / 140 40% 2 15.04.2028 -
Ben Gannon Doak Charlton Athletic Ativo 149 / 152 40% 2 14.04.2028 -
Xavi Simons Tottenham Ativo 166 / 162 40% 6 12.04.2028 -
Dehmaine Tabibou FC Nantes Ativo 135 / 131 40% 3 11.04.2028 -
Alex Robertson Cardiff City Ativo 126 / 126 40% 1 07.04.2028 -
Hákon Arnar Haraldsson LOSC Lille Ativo 158 / 154 40% 8 31.03.2028 -
Adam Karabec Sparta Prague Ativo 134 / 135 40% 5 27.03.2028 -
Thiago Silvero Vélez Ativo 126 / 133 40% 1 24.03.2028 -
Alisson Shakhtar Ativo 140 / 145 40% 5 20.03.2028 -
Jack McGlynn Stoke City Ativo 138 / 137 40% 3 18.03.2028 -
Jayden Danns Bradford City Ativo 134 / 138 40% 2 18.03.2028 -
Gustavo Neves Bragantino Ativo 131 / 132 40% 3 06.03.2028 -
Quinn Sullivan Philadelphia Union Ativo 132 / 125 40% 3 26.02.2028 -
Lucas Assadi AIK Ativo 136 / 132 40% 3 21.02.2028 -
Victor Lind Hammarby Ativo 133 / 129 40% 4 20.02.2028 -
Nhoa Sangui AS Nancy Ativo 128 / 131 40% 1 16.02.2028 -
Patricio Moyano Defensores Ativo 120 / 121 40% 1 25.01.2028 -
Archie Gray Southampton Ativo 156 / 155 40% 5 17.01.2028 -
Bitello Universidad de Chile Ativo 135 / 135 68% 1 01.01.2028 Aprovar
Dilan Godoy Beitar Jerusalem Ativo 122 / 118 40% 3 30.12.2027 -
Valentino Acuña Newell's Old Boys Ativo 116 / 119 40% 3 30.12.2027 -
Ryan Kavuma-McQueen Accrington Stanley Ativo 118 / 128 40% 6 27.12.2027 -
Mateo Peralta Danubio Ativo 109 / 116 40% 2 26.12.2027 -
Eli Junior Kroupi Bournemouth Ativo 143 / 149 40% 3 26.12.2027 -
Victor Hernandez Santa Fe Ativo 114 / 125 40% 5 21.12.2027 -
Josh Acheampong Everton Ativo 142 / 146 40% 4 21.12.2027 -
Siyabonga Mabena Bidvest Wits Ativo 120 / 127 40% 4 17.12.2027 -
Kerim Alajbegović Modena Ativo 129 / 136 40% 3 15.12.2027 -
Mateo Silvetti Seattle Sounders Ativo 118 / 132 40% 1 14.12.2027 -
Jeremías Merlo Gimnasia La Plata Ativo 131 / 122 40% 2 12.12.2027 -
Bazoumana Touré Newcastle United Ativo 145 / 151 40% 3 11.12.2027 -
Eliás Montiel Borussia Dortmund Ativo 136 / 141 40% 2 16.08.2027 -
Lucas Bergvall Tottenham Ativo 148 / 154 40% 2 16.08.2027 -
Caleb Yirenkyi Coventry City Ativo 138 / 143 40% 3 26.07.2027 -
Enzo Koffi Olympique de Marseille Ativo 118 / 119 40% 1 14.07.2027 -
Silas Huber Zurich Ativo 118 / 126 40% 1 05.07.2027 -
Xavier Dziekoński Slask Ativo 118 / 124 40% 1 05.07.2027 -
Amine Boukamir Charleroi Ativo 105 / 109 40% 1 28.06.2027 -
Bart Verbruggen Liverpool Ativo 157 / 158 40% 1 21.06.2027 -
Ander Astralaga Newcastle United Ativo 128 / 131 40% 1 21.06.2027 -
Jacques Gautier Chamois Niortais Ativo 123 / 128 79% 1 14.06.2027 Aprovar
Oliver Dovin Coventry City Ativo 127 / 132 40% 1 01.06.2027 -
Georginio Rutter Brighton Ativo 149 / 150 40% 4 31.05.2027 -
Ethan Williams Peterborough United Ativo 116 / 117 40% 2 30.05.2027 -
William Gomes Porto Ativo 143 / 148 40% 3 29.05.2027 -
Lucas Høgsberg RC Strasbourg Ativo 133 / 138 40% 6 29.05.2027 -
Mateus Mané Burnley Ativo 137 / 140 40% 3 27.05.2027 -
Sam Amo-Ameyaw RC Strasbourg Ativo 126 / 128 40% 3 26.05.2027 -
Oscar Schwartau Norwich City Ativo 121 / 124 40% 3 26.05.2027 -
Robin Roefs Sunderland Ativo 146 / 147 40% 1 26.05.2027 -
Othmane Maamma Watford Ativo 128 / 127 40% 8 23.05.2027 -
Romelle Donovan Brentford Ativo 119 / 129 40% 6 23.05.2027 -
Senny Mayulu Paris Saint-Germain Ativo 141 / 150 40% 2 23.05.2027 -
Louis Leroux FC Nantes Ativo 129 / 132 40% 5 22.05.2027 -
Kirill Glebov CSKA Moscow Ativo 130 / 128 40% 4 21.05.2027 -
Mohamadou Kanté Crawley Town Ativo 115 / 121 40% 2 21.05.2027 -
Cheveyo Tsawa Club Brugge Ativo 118 / 127 40% 4 19.05.2027 -
Jan Virgili Club Brugge Ativo 135 / 137 40% 10 16.05.2027 -
Pape Diong Westerlo Ativo 116 / 124 40% 4 16.05.2027 -
Sindre Walle Egeli Udinese Ativo 127 / 135 40% 5 15.05.2027 -
Gessime Yassine RC Strasbourg Ativo 126 / 122 40% 2 15.05.2027 -
James Trafford Leeds United Ativo 148 / 146 40% 1 15.05.2027 -
Marvin Keller Chelsea Ativo 140 / 144 40% 1 15.05.2027 -
Samuel Soares Benfica Ativo 134 / 135 40% 2 14.05.2027 -
Melker Ellborg Sunderland Ativo 125 / 127 40% 2 12.05.2027 -
Radek Vítek Middlesbrough Ativo 142 / 140 40% 2 12.05.2027 -
Tibe De Vlieger KAA Gent Ativo 102 / 110 40% 4 07.05.2027 -
Doğan Alemdar Basaksehir Ativo 122 / 120 40% 2 07.05.2027 -
Sławomir Abramowicz Jagiellonia Ativo 119 / 125 40% 1 06.05.2027 -
Deniz Ertaş Konyaspor Ativo 123 / 123 40% 1 06.05.2027 -
Gianluca Prestianni Benfica Ativo 133 / 137 40% 1 04.05.2027 -
Calum Agius Crewe Alexandra Ativo 95 / 100 40% 1 04.05.2027 -
Samir El Mourabet RC Strasbourg Ativo 121 / 131 40% 7 30.04.2027 -
Yassine Khalifi Charleroi Ativo 105 / 108 40% 2 25.04.2027 -
Monty Batlhabane Polokwane City Ativo 95 / 95 40% 4 24.04.2027 -
Lander Astiazarán Real Sociedad Ativo 101 / 109 40% 1 24.04.2027 -
Guillaume Restes Toulouse FC Ativo 140 / 137 40% 1 22.04.2027 -
Mathys Tel Tottenham Ativo 142 / 149 40% 2 18.04.2027 -
Olívio Tomé Benfica Ativo 109 / 110 40% 3 18.04.2027 -
Rocco Vata Watford Ativo 117 / 123 40% 2 20.03.2027 -
Joaquin Seys Club Brugge Ativo 132 / 133 40% 1 17.03.2027 -
Nico O'Reilly Manchester City Ativo 156 / 157 40% 1 09.03.2027 -
Roberto Fernández Braga Ativo 140 / 141 40% 10 21.01.2027 -
Pau Víctor Braga Ativo 141 / 136 40% 5 21.01.2027 -
Alexsandro Ribeiro LOSC Lille Ativo 145 / 143 40% 1 12.01.2027 -
Erik Lira Cruz Azul Ativo 134 / 134 40% 1 12.01.2027 -
Manu Koné AS Roma Ativo 161 / 163 40% 2 07.01.2027 -
Anel Ahmedhodžić Burnley Ativo 138 / 134 40% 1 07.01.2027 -
Ousmane Diomande Nottingham Forest Ativo 148 / 154 40% 1 07.01.2027 -
Brais Méndez RC Lens Ativo 146 / 152 40% 4 30.12.2026 -
Sofiane Diop OGC Nice Ativo 140 / 140 40% 3 30.12.2026 -
Takumi Minamino Monaco Ativo 147 / 137 40% 3 30.12.2026 -
Vitinha Paris Saint-Germain Ativo 180 / 183 40% 4 28.12.2026 -
Achraf Hakimi Paris Saint-Germain Ativo 186 / 175 40% 12 26.12.2026 -
Rafiu Durosinmi Racing Genk Ativo 135 / 128 40% 6 24.12.2026 -
Ousmane Dembélé Paris Saint-Germain Ativo 191 / 183 40% 6 24.12.2026 -
Chukwubuikem Ikwuemesi OH Leuven Ativo 121 / 118 40% 3 24.12.2026 -
Osame Sahraoui LOSC Lille Ativo 140 / 137 40% 6 21.12.2026 Observar
João Pedro Chelsea Ativo 151 / 149 40% 7 15.12.2026 -
James Maddison Tottenham Ativo 156 / 155 40% 6 07.12.2026 -
Moisés Caicedo Chelsea Ativo 174 / 169 40% 6 04.12.2026 -
João Neves Paris Saint-Germain Ativo 170 / 163 40% 7 26.11.2026 -
Amadou Onana Aston Villa Ativo 155 / 155 40% 1 26.11.2026 -
Kevin Fulham Ativo 150 / 145 40% 4 24.11.2026 -
Carlos Álvarez Club America Ativo 143 / 144 40% 4 23.11.2026 -
Cody Gakpo Liverpool Ativo 158 / 155 40% 5 21.11.2026 -
Tyrese Campbell Sheffield United Ativo 130 / 123 40% 3 19.11.2026 -
Tiago Santos LOSC Lille Ativo 139 / 140 40% 1 11.11.2026 -
Adama Traoré Gazelle Garoua Ativo 91 / 94 40% 1 09.11.2026 -
Nicolò Tresoldi Club Brugge Ativo 130 / 132 40% 3 03.11.2026 -
Jens Petter Hauge Bodo/Glimt Ativo 148 / 134 40% 2 03.11.2026 -
Pavel Šulc Olympique Lyonnais Ativo 141 / 140 40% 1 30.10.2026 -
Federico Chiesa Liverpool Ativo 154 / 153 40% 1 27.10.2026 -
Óscar Mingueza Crystal Palace Ativo 146 / 147 40% 1 25.10.2026 -
Pedro Porro Tottenham Ativo 148 / 147 40% 1 25.10.2026 -
Sven Botman Newcastle United Ativo 159 / 159 40% 2 24.10.2026 -
Nathan Collins Brentford Ativo 142 / 147 40% 1 24.10.2026 -
Alejandro Piedrahita Deportivo Pereira Ativo 126 / 123 40% 1 22.10.2026 -
Mats Wieffer Brighton Ativo 147 / 144 40% 3 19.10.2026 -
Jadon Sancho Manchester United Ativo 145 / 151 40% 1 19.10.2026 -
Cristian Uribe Monaco Ativo 148 / 151 40% 2 04.10.2026 -
Tadeo Allende Inter Miami CF Ativo 120 / 124 40% 2 29.09.2026 -
Denis Zakaria Monaco Ativo 144 / 143 40% 1 28.09.2026 -
Maghnes Akliouche Paris Saint-Germain Ativo 138 / 143 40% 1 19.09.2026 -
Yankuba Minteh Brighton Ativo 145 / 153 40% 1 11.09.2026 -
Xaver Schlager Nottingham Forest Ativo 149 / 149 40% 1 11.09.2026 -
Ismaïla Sarr Crystal Palace Ativo 146 / 153 40% 1 09.09.2026 -
Jarrod Bowen West Ham United Ativo 155 / 156 40% 1 31.08.2026 -
Morgan Rogers Chelsea Ativo 154 / 159 40% 1 01.08.2026 -